Felker Army Air Field
KFAF : now visible

Airfield :











YOU CAN JOIN US ON...

 
LOGIN :

Register | Disclaimer

   EN    FR    IT 

 









Legend :    VFR   Marginal VFR   IFR   Intensive IFR   Very Intensive IFR
Visi :
Ceiling :
>= 8 km
>= 3000ft
5 to 8 km
1000 to 3000 ft
1500m to 5 km
500 to 1000 ft
800 to 1500m
200 to 500 ft
< 800m
< 200 ft
Symbols :   Thunderstorms  Fog  Heavy snow  Heavy precipitations  Wind > 20 kt






- Airport Elevation : 12 ft


KFAF - Felker Army Air Field

CURRENT METAR :
  • 041756Z AUTO 16007KT 10SM SCT038 BKN200 31/25 A2989 RMK AO2 DZB27E36 SLP125 P0000 60000 T03080251 10317 20268 50000 $

EXPIRED METARs :
  • 041736Z AUTO 20007KT 10SM FEW038 FEW190 31/25 A2989 RMK AO2 DZB27E36 SLP125 $
  • 041727Z AUTO 19006KT 10SM -DZ SCT036 SCT180 BKN210 31/25 A2989 RMK AO2 DZB27 SLP125 $
  • 041656Z AUTO 00000KT 10SM SCT035 31/25 A2990 RMK AO2 SLP128 T03140247 $
  • 041556Z AUTO 00000KT 10SM SCT034 31/24 A2990 RMK AO2 SLP128 T03110242 $

Expired Forecast.
KZDC FIR / North America



MET'MAP, your aeronautical weather chart ! - Copyright ORBIFLY December 2007 - Disclaimer

ORBIFLY MET'MAP TEAM :

Programming & Development : Alexandra Zaïnal
Concept & original design : Baudouin d'Aumeries
Assistance for programming : Marc-Olivier Méhu
Technical & hardware support : Manuel Goepfert

Contact : metmap@orbifly.com




SOURCES & CREDITS :

   NOAA       Earth
Advisory